Time;durP1;ratioP1;P1;durP2;ratioP2;P2;SDS_P1;SDS_P2;PMS_P1;PMS_P2;Temp;Humidity;BMP_temperature;BMP_pressure;BME280_temperature;BME280_humidity;BME280_pressure;Samples;Min_cycle;Max_cycle;Signal;HPM_P1;HPM_P2
2022/11/18 00:01:42;;;;;;;9.68;4.75;;;-3.00;57.50;;;-2.68;100.00;98265.69;5168920;27;40639;-75
2022/11/18 00:04:10;;;;;;;8.30;4.35;;;-3.00;57.80;;;-2.50;100.00;98271.63;5168953;27;41852;-74
2022/11/18 00:06:39;;;;;;;8.38;5.03;;;-2.90;59.20;;;-2.50;100.00;98276.94;5153495;27;41666;-73
2022/11/18 00:09:09;;;;;;;10.50;4.75;;;-2.90;55.90;;;-2.51;100.00;98278.00;5153265;27;39909;-74
2022/11/18 00:14:26;;;;;;;8.85;4.75;;;-2.90;39.90;;;-2.53;100.00;98273.72;5169010;27;42597;-76
2022/11/18 00:16:57;;;;;;;11.13;4.25;;;-2.80;36.90;;;-2.43;100.00;98280.16;5168820;27;41633;-76
2022/11/18 00:19:28;;;;;;;7.00;4.20;;;-2.80;21.20;;;-2.21;100.00;98277.38;5168663;27;40152;-73
2022/11/18 00:21:57;;;;;;;9.82;4.30;;;-2.80;17.50;;;-2.31;100.00;98287.94;5136187;27;38461;-76
2022/11/18 00:24:28;;;;;;;8.18;3.97;;;-2.80;5.70;;;-2.25;99.65;98281.59;5136011;27;40972;-75
2022/11/18 00:26:57;;;;;;;6.45;3.72;;;-2.80;1.00;;;-2.62;100.00;98277.91;5168657;27;41168;-76
2022/11/18 00:29:27;;;;;;;5.85;3.28;;;-2.90;1.00;;;-2.62;100.00;98280.56;5168937;27;40437;-75
2022/11/18 00:31:56;;;;;;;6.65;3.70;;;-3.00;1.00;;;-2.44;99.91;98281.22;5167615;27;39891;-75
2022/11/18 00:34:25;;;;;;;6.75;3.47;;;-2.90;1.00;;;-2.31;98.88;98291.41;5168256;27;41925;-73
2022/11/18 00:36:54;;;;;;;6.70;3.58;;;-2.80;1.00;;;-2.39;97.69;98282.03;5168600;27;42239;-76
2022/11/18 00:39:22;;;;;;;7.18;3.85;;;-2.90;1.00;;;-2.60;97.45;98283.78;5169937;27;40319;-76
2022/11/18 00:44:38;;;;;;;6.82;3.50;;;-3.00;1.00;;;-2.58;98.21;98286.97;5168368;27;41733;-74
2022/11/18 00:47:06;;;;;;;7.63;3.92;;;-3.00;1.00;;;-2.59;99.38;98285.38;5152992;27;40415;-74
2022/11/18 00:49:35;;;;;;;6.63;3.40;;;-3.00;1.00;;;-2.63;99.17;98292.25;5168332;27;40223;-75
2022/11/18 00:52:04;;;;;;;7.57;4.18;;;-3.00;1.00;;;-2.65;98.51;98285.59;5168238;27;40834;-75
2022/11/18 00:54:32;;;;;;;8.82;4.82;;;-3.00;1.00;;;-2.77;98.57;98288.44;5168159;27;42573;-75
2022/11/18 00:57:04;;;;;;;9.60;5.20;;;-3.20;1.00;;;-2.90;98.25;98290.47;5135446;27;40245;-75
2022/11/18 00:59:32;;;;;;;7.40;4.28;;;-3.20;1.00;;;-2.95;97.69;98293.06;5167691;27;41239;-74
2022/11/18 01:02:00;;;;;;;7.03;4.30;;;-3.30;1.00;;;-2.96;96.77;98291.47;5168115;27;41212;-74
2022/11/18 01:04:29;;;;;;;8.25;4.47;;;-3.30;1.00;;;-3.11;96.33;98294.00;5168025;27;41871;-75
2022/11/18 01:06:58;;;;;;;9.35;4.47;;;-3.40;1.00;;;-3.27;95.98;98301.81;5167845;27;41183;-75
2022/11/18 01:09:26;;;;;;;9.60;4.57;;;-3.60;1.00;;;-3.39;96.25;98303.78;5152648;27;39562;-76
2022/11/18 01:14:42;;;;;;;9.38;5.18;;;-3.80;1.00;;;-3.67;96.66;98308.25;5167936;27;41830;-75
2022/11/18 01:17:10;;;;;;;11.00;5.38;;;-3.90;1.00;;;-3.70;96.80;98311.41;5152497;27;40607;-73
2022/11/18 01:19:39;;;;;;;10.65;5.93;;;-4.00;1.00;;;-3.68;96.64;98317.25;5152386;27;40487;-75
2022/11/18 01:22:07;;;;;;;9.70;5.60;;;-4.00;1.00;;;-3.66;96.21;98317.81;5167792;27;39806;-75
2022/11/18 01:24:36;;;;;;;8.63;4.90;;;-4.10;1.00;;;-3.77;96.85;98329.38;5151632;27;40951;-75
2022/11/18 01:27:05;;;;;;;11.40;5.90;;;-4.10;1.00;;;-3.83;98.20;98325.84;5148954;27;42408;-75
2022/11/18 01:29:33;;;;;;;8.63;5.07;;;-4.10;1.00;;;-3.74;97.94;98331.53;5167713;27;41007;-75
2022/11/18 01:32:03;;;;;;;8.80;5.35;;;-4.10;1.00;;;-3.81;98.15;98326.38;5148876;27;40088;-75
2022/11/18 01:34:31;;;;;;;12.88;6.20;;;-4.10;1.00;;;-3.72;98.09;98332.06;5152409;27;41351;-74
2022/11/18 01:37:00;;;;;;;11.55;6.72;;;-4.00;1.00;;;-3.75;97.70;98324.63;5167450;27;42161;-74
2022/11/18 01:39:30;;;;;;;9.77;5.93;;;-4.00;1.00;;;-3.75;98.75;98331.78;5168726;27;40383;-74
2022/11/18 01:41:58;;;;;;;10.88;6.28;;;-4.00;1.00;;;-3.72;98.69;98332.06;5167148;27;39899;-76
2022/11/18 01:45:03;;;;;;;10.07;5.88;;;-4.00;1.00;;;-3.78;99.22;98327.75;5134065;27;41704;-76
2022/11/18 01:47:40;;;;;;;9.93;6.00;;;-3.90;1.00;;;-3.62;99.26;98332.19;5167377;27;42185;-76
2022/11/18 01:50:10;;;;;;;11.30;6.43;;;-3.90;1.00;;;-3.58;98.56;98332.50;5151562;27;41696;-75
2022/11/18 01:52:41;;;;;;;14.02;6.85;;;-3.90;1.00;;;-3.52;98.41;98336.81;5167661;27;40833;-76
2022/11/18 01:55:16;;;;;;;13.90;7.03;;;-3.90;1.00;;;-3.48;98.74;98329.16;5167487;27;41489;-76
2022/11/18 01:57:48;;;;;;;11.75;5.68;;;-3.80;1.00;;;-3.45;98.13;98333.97;5167389;27;41078;-74
2022/11/18 02:00:17;;;;;;;11.40;6.78;;;-3.90;1.00;;;-3.33;97.84;98339.94;5167526;27;41012;-72
2022/11/18 02:02:49;;;;;;;15.40;7.05;;;-3.80;1.00;;;-3.56;97.97;98343.66;5151534;27;39465;-76
2022/11/18 02:05:18;;;;;;;13.45;6.80;;;-3.80;1.00;;;-3.57;98.76;98341.25;5167306;27;42556;-76
2022/11/18 02:07:47;;;;;;;12.05;6.15;;;-3.90;1.00;;;-3.47;98.45;98338.72;5151860;27;40701;-75
2022/11/18 02:10:22;;;;;;;11.98;6.47;;;-3.80;1.00;;;-3.46;97.94;98337.66;5167160;27;40247;-74
2022/11/18 02:12:52;;;;;;;10.60;6.40;;;-3.90;1.00;;;-3.52;98.44;98346.59;5167403;27;40032;-76
2022/11/18 02:15:38;;;;;;;12.13;7.07;;;-3.90;1.00;;;-3.55;98.06;98336.50;5147909;27;41503;-73
2022/11/18 02:18:17;;;;;;;12.68;7.18;;;-3.80;1.00;;;-3.53;97.75;98345.81;5148551;27;42193;-75
2022/11/18 02:20:50;;;;;;;11.50;6.85;;;-3.90;1.00;;;-3.54;96.93;98348.72;5151591;27;38876;-75
2022/11/18 02:24:09;;;;;;;11.05;6.85;;;-3.90;1.00;;;-3.70;96.68;98345.88;5166885;27;40824;-76
2022/11/18 02:27:29;;;;;;;;;;;-3.90;1.00;;;-3.65;96.21;98348.59;5134779;27;41368;-74
2022/11/18 02:30:04;;;;;;;11.82;6.10;;;-4.00;1.00;;;-3.82;96.59;98343.38;5148304;27;41428;-74
2022/11/18 02:32:38;;;;;;;11.57;6.78;;;-4.10;1.00;;;-3.85;96.66;98343.03;5166910;27;40998;-74
2022/11/18 02:35:13;;;;;;;11.93;6.22;;;-4.10;1.00;;;-4.12;97.49;98343.75;5166643;27;39934;-75
2022/11/18 02:37:48;;;;;;;12.30;7.07;;;-4.20;1.00;;;-4.10;97.33;98346.94;5166911;27;42514;-74
2022/11/18 02:40:23;;;;;;;12.82;6.82;;;-4.20;1.00;;;-4.26;98.13;98348.56;5169717;27;41265;-75
2022/11/18 02:42:57;;;;;;;14.88;7.60;;;-4.30;1.00;;;-4.32;99.19;98348.75;5151063;27;40901;-75
2022/11/18 02:45:29;;;;;;;12.95;7.38;;;-4.40;1.00;;;-4.24;99.06;98351.81;5151289;27;40347;-74
2022/11/18 02:48:02;;;;;;;12.95;6.95;;;-4.40;1.00;;;-4.24;99.06;98351.81;5151394;27;42244;-74
2022/11/18 02:50:33;;;;;;;12.18;7.18;;;-4.50;1.00;;;-4.55;100.00;87469.59;5151280;27;41593;-74
2022/11/18 02:53:05;;;;;;;12.60;6.97;;;-4.50;1.00;;;-4.57;100.00;98347.31;5166531;27;40137;-75
2022/11/18 02:55:36;;;;;;;14.82;6.35;;;-4.60;1.00;;;-4.62;100.00;98349.88;5154422;27;39444;-75
2022/11/18 02:58:06;;;;;;;13.48;7.57;;;-4.70;1.00;;;-4.68;100.00;98358.78;5154595;27;42165;-75
2022/11/18 03:00:37;;;;;;;13.20;7.40;;;-4.70;1.00;;;-4.72;100.00;98348.69;5169960;27;41234;-75
2022/11/18 03:03:27;;;;;;;17.45;7.72;;;-4.80;1.00;;;-4.71;100.00;98347.63;5137521;27;38867;-75
2022/11/18 03:06:07;;;;;;;13.10;7.38;;;-4.80;1.00;;;-4.81;100.00;98354.59;5154652;27;38869;-75
2022/11/18 03:08:42;;;;;;;14.55;7.53;;;-4.90;1.00;;;-4.83;100.00;98351.38;5169369;27;42017;-75
2022/11/18 03:11:18;;;;;;;15.18;7.57;;;-4.90;1.00;;;-4.88;100.00;98341.50;5169969;27;42016;-75
2022/11/18 03:14:06;;;;;;;15.95;8.45;;;-5.00;1.00;;;-4.94;100.00;98353.88;5137266;27;39689;-74
2022/11/18 03:16:44;;;;;;;12.80;7.38;;;-5.00;1.00;;;-5.07;100.00;98351.50;5169774;27;40027;-74
2022/11/18 03:19:20;;;;;;;15.68;8.23;;;-5.00;1.00;;;-5.09;100.00;98351.75;5137118;27;40577;-75
2022/11/18 03:21:59;;;;;;;13.60;7.50;;;-5.10;1.00;;;-4.99;100.00;98350.31;5170217;27;42318;-76
2022/11/18 03:24:32;;;;;;;15.48;8.05;;;-5.10;1.00;;;-4.96;100.00;98352.50;5169811;27;41123;-75
2022/11/18 03:27:11;;;;;;;15.30;9.02;;;-5.10;1.00;;;-5.13;100.00;98353.25;5169747;27;39883;-75
2022/11/18 03:29:45;;;;;;;14.88;8.25;;;-5.10;1.00;;;-5.01;100.00;98352.41;5169943;27;43061;-76
2022/11/18 03:32:19;;;;;;;13.88;8.25;;;-5.10;1.00;;;-5.04;100.00;98347.59;5154299;27;40808;-75
2022/11/18 03:34:52;;;;;;;15.43;8.63;;;-5.00;1.00;;;-4.95;100.00;98351.47;5169297;27;41028;-75
2022/11/18 03:37:23;;;;;;;14.27;8.20;;;-5.00;1.00;;;-4.86;100.00;98350.03;5154397;27;39468;-75
2022/11/18 03:39:57;;;;;;;16.25;9.70;;;-4.90;1.00;;;-4.87;100.00;98353.72;5136491;27;40274;-75
2022/11/18 03:42:32;;;;;;;15.88;9.30;;;-5.00;1.00;;;-4.81;100.00;98359.91;5154126;27;39845;-74
2022/11/18 03:45:07;;;;;;;14.25;8.27;;;-4.90;1.00;;;-4.77;100.00;98364.47;5169313;27;40922;-74
2022/11/18 03:47:43;;;;;;;16.15;8.82;;;-4.90;1.00;;;-4.77;74.38;69272.31;5169591;27;41200;-76
2022/11/18 03:50:17;;;;;;;12.95;7.20;;;-4.90;1.00;;;-4.77;100.00;98353.91;5136864;27;42491;-76
2022/11/18 03:52:47;;;;;;;15.77;9.50;;;-4.90;1.00;;;-4.71;100.00;98357.41;5169457;27;42341;-76
2022/11/18 03:55:22;;;;;;;16.65;8.77;;;-4.90;1.00;;;-147.47;74.67;77815.91;5169242;27;41220;-76
2022/11/18 03:57:55;;;;;;;16.05;9.88;;;-4.90;1.00;;;-4.67;100.00;87452.56;5169499;27;40738;-75
2022/11/18 04:00:27;;;;;;;16.38;8.40;;;-4.90;1.00;;;-4.73;100.00;98349.72;5153106;27;40625;-75
2022/11/18 04:02:57;;;;;;;15.52;9.00;;;-4.90;1.00;;;-4.84;100.00;98353.25;5153757;27;40850;-75
2022/11/18 04:05:26;;;;;;;15.68;8.73;;;-4.90;1.00;;;-4.76;100.00;98355.47;5153728;27;39867;-76
2022/11/18 04:07:59;;;;;;;16.67;9.13;;;-4.90;1.00;;;-4.76;100.00;87440.50;5169012;27;39966;-75
2022/11/18 04:10:33;;;;;;;16.10;8.40;;;-4.90;1.00;;;-4.87;99.90;98359.81;5153781;27;41457;-76
2022/11/18 04:13:06;;;;;;;17.13;9.75;;;-4.90;1.00;;;-4.87;74.58;98359.00;5168810;27;41440;-76
2022/11/18 04:15:38;;;;;;;17.70;8.93;;;-5.00;1.00;;;-4.96;100.00;98358.56;5153535;27;39536;-76
2022/11/18 04:18:09;;;;;;;16.30;9.05;;;-5.00;1.00;;;-147.47;100.00;69272.31;5168930;27;40968;-75
2022/11/18 04:20:38;;;;;;;15.93;9.80;;;-5.00;1.00;;;-4.85;100.00;87428.41;5168825;27;41558;-74
2022/11/18 04:23:07;;;;;;;15.48;9.48;;;-5.00;1.00;;;-4.74;74.84;69272.31;5152994;27;39901;-75
2022/11/18 04:25:36;;;;;;;17.88;9.40;;;-4.90;1.00;;;-4.65;100.00;87455.41;5168008;27;41300;-75
2022/11/18 04:28:06;;;;;;;16.40;9.27;;;-4.80;1.00;;;-147.47;100.00;69272.31;5168580;27;41239;-75
2022/11/18 04:30:35;;;;;;;19.08;10.15;;;-4.80;1.00;;;-147.47;100.00;69272.31;5177941;27;32451;-76
2022/11/18 04:33:04;;;;;;;14.82;9.18;;;-4.80;1.00;;;-147.47;100.00;69272.31;5145016;27;31693;-76
2022/11/18 04:35:33;;;;;;;20.52;10.13;;;-4.70;1.00;;;-147.47;100.00;69272.31;5159016;27;33050;-75
2022/11/18 04:38:02;;;;;;;15.98;9.95;;;-4.60;1.00;;;-147.47;100.00;69272.31;5162428;27;31461;-75
2022/11/18 04:40:31;;;;;;;17.17;9.85;;;-4.60;1.00;;;-147.47;100.00;69272.31;5180595;27;32282;-76
2022/11/18 04:42:59;;;;;;;20.02;9.43;;;-4.60;1.00;;;-147.47;100.00;69272.31;5177550;27;32101;-75
2022/11/18 04:45:28;;;;;;;18.02;10.43;;;-4.60;1.00;;;-147.47;100.00;69272.31;5177322;27;31917;-75
2022/11/18 04:47:56;;;;;;;17.40;10.18;;;-4.70;1.00;;;-147.47;100.00;69272.31;5177310;27;31811;-76
2022/11/18 04:50:25;;;;;;;17.30;9.90;;;-4.70;1.00;;;-147.47;100.00;69272.31;5177564;27;32510;-77
2022/11/18 04:52:55;;;;;;;20.48;9.70;;;-4.70;1.00;;;-147.47;100.00;69272.31;5177381;27;32759;-76
2022/11/18 04:55:23;;;;;;;20.67;10.52;;;-4.60;1.00;;;-147.47;100.00;69272.31;5162105;27;31650;-75
2022/11/18 04:57:52;;;;;;;18.92;10.07;;;-4.60;1.00;;;-147.47;100.00;69272.31;5177699;27;31516;-76
2022/11/18 05:00:21;;;;;;;18.38;11.57;;;-4.60;1.00;;;-147.47;100.00;69272.31;5162157;27;31976;-78
2022/11/18 05:02:50;;;;;;;17.90;9.75;;;-4.60;1.00;;;-147.47;100.00;69272.31;5162185;27;30546;-77
2022/11/18 05:05:18;;;;;;;21.90;10.45;;;-4.60;1.00;;;-147.47;100.00;69272.31;5177264;27;32524;-78
2022/11/18 05:07:47;;;;;;;20.02;10.20;;;-4.60;1.00;;;-147.47;100.00;69272.31;5177217;27;31780;-78
2022/11/18 05:10:17;;;;;;;18.40;10.35;;;-4.50;1.00;;;-147.47;100.00;69272.31;5177233;27;32536;-80
2022/11/18 05:12:47;;;;;;;23.55;11.52;;;-4.50;1.00;;;-147.47;100.00;69272.31;5161608;27;32390;-78
2022/11/18 05:15:16;;;;;;;21.13;11.55;;;-4.40;1.00;;;-147.47;100.00;69272.31;5175534;27;31499;-78
2022/11/18 05:17:45;;;;;;;24.23;11.38;;;-4.40;1.00;;;-147.47;100.00;69272.31;5176211;27;32081;-77
2022/11/18 05:20:14;;;;;;;20.02;10.68;;;-4.40;1.00;;;-147.47;100.00;69272.31;5177416;27;33421;-77
2022/11/18 05:22:42;;;;;;;22.00;11.80;;;-4.40;1.00;;;-147.47;100.00;69272.31;5161847;27;31856;-78
2022/11/18 05:25:11;;;;;;;20.00;11.05;;;-4.40;1.00;;;-147.47;100.00;69272.31;5161485;27;31201;-77
2022/11/18 05:27:41;;;;;;;18.17;10.40;;;-4.30;1.00;;;-147.47;100.00;69272.31;5177134;27;31560;-76
2022/11/18 05:30:11;;;;;;;20.00;10.18;;;-4.20;1.00;;;-147.47;100.00;69272.31;5177161;27;32426;-77
2022/11/18 05:32:39;;;;;;;21.42;11.05;;;-4.20;1.00;;;-147.47;100.00;69272.31;5177019;27;32888;-78
2022/11/18 05:35:09;;;;;;;18.48;10.88;;;-4.30;1.00;;;-147.47;100.00;69272.31;5176872;27;31620;-77
2022/11/18 05:37:38;;;;;;;23.23;10.27;;;-4.10;1.00;;;-147.47;100.00;69272.31;5144280;27;30297;-77
2022/11/18 05:40:08;;;;;;;18.25;9.68;;;-4.10;1.00;;;-147.47;100.00;69272.31;5161106;27;32999;-76
2022/11/18 05:45:24;;;;;;;19.00;10.77;;;-4.10;1.00;;;-147.47;100.00;69272.31;5176933;27;32664;-75
2022/11/18 05:48:03;;;;;;;18.85;9.73;;;-4.10;1.00;;;-147.47;100.00;69272.31;5176723;27;32061;-79
2022/11/18 05:50:33;;;;;;;24.27;12.40;;;-4.00;1.00;;;-147.47;100.00;69272.31;5161319;27;31914;-77
2022/11/18 05:53:03;;;;;;;22.05;11.73;;;-3.90;1.00;;;-147.47;100.00;69272.31;5176610;27;33161;-78
2022/11/18 05:55:44;;;;;;;19.80;10.88;;;-3.90;1.00;;;-147.47;100.00;69272.31;5144152;27;31687;-77
2022/11/18 05:58:12;;;;;;;20.88;12.88;;;-3.90;1.00;;;-147.47;100.00;69272.31;5161104;27;31484;-77
2022/11/18 06:00:43;;;;;;;23.17;13.32;;;-3.80;1.00;;;-147.47;100.00;69272.31;5176666;27;32582;-78
2022/11/18 06:03:19;;;;;;;24.15;13.43;;;-3.80;1.00;;;-147.47;100.00;69272.31;5176651;27;32102;-78
2022/11/18 06:05:48;;;;;;;18.57;11.60;;;-3.70;1.00;;;-147.47;100.00;69272.31;5143949;27;32356;-76
2022/11/18 06:08:19;;;;;;;21.08;11.55;;;-3.80;1.00;;;-147.47;100.00;69272.31;5157949;27;31331;-77
2022/11/18 06:10:51;;;;;;;17.63;11.02;;;-3.90;1.00;;;-147.47;100.00;69272.31;5161278;27;31234;-76
2022/11/18 06:13:23;;;;;;;22.30;11.73;;;-3.80;1.00;;;-147.47;100.00;69272.31;5176577;27;31947;-78
2022/11/18 06:15:53;;;;;;;19.70;11.70;;;-3.80;1.00;;;-147.47;100.00;69272.31;5176490;27;32004;-78
2022/11/18 06:18:26;;;;;;;21.13;12.15;;;-3.80;1.00;;;-147.47;100.00;69272.31;5161027;27;30365;-77
2022/11/18 06:20:59;;;;;;;18.17;11.55;;;-3.90;1.00;;;-147.47;100.00;69272.31;5160796;27;31501;-80
2022/11/18 06:23:30;;;;;;;18.83;11.55;;;-3.80;1.00;;;-147.47;100.00;69272.31;5176685;27;32790;-80
2022/11/18 06:25:59;;;;;;;20.45;12.77;;;-3.70;1.00;;;-147.47;100.00;69272.31;5143754;27;32267;-79
2022/11/18 06:28:29;;;;;;;19.67;11.43;;;-3.70;1.00;;;-147.47;100.00;69272.31;5176581;27;31432;-80
2022/11/18 06:30:59;;;;;;;20.27;11.68;;;-3.60;1.00;;;-147.47;100.00;69272.31;5182145;27;33615;-80
2022/11/18 06:33:28;;;;;;;22.00;11.07;;;-3.70;1.00;;;-147.47;100.00;69272.31;5180447;27;32285;-74
2022/11/18 06:35:56;;;;;;;18.65;11.73;;;-3.70;1.00;;;-147.47;100.00;69272.31;5164424;27;31593;-75
2022/11/18 06:38:25;;;;;;;20.20;11.65;;;-3.70;1.00;;;-147.47;100.00;69272.31;5179662;27;31706;-75
2022/11/18 06:40:54;;;;;;;17.77;11.10;;;-3.60;1.00;;;-147.47;100.00;69272.31;5179493;27;33389;-74
2022/11/18 06:43:42;;;;;;;17.70;11.30;;;-3.60;1.00;;;-147.47;100.00;69272.31;5180124;27;31916;-76
2022/11/18 06:49:01;;;;;;;19.60;11.35;;;-3.60;1.00;;;-147.47;100.00;69272.31;5179919;27;32126;-77
2022/11/18 06:51:30;;;;;;;16.90;10.88;;;-3.40;1.00;;;-147.47;100.00;69272.31;5146785;27;30847;-76
2022/11/18 06:53:58;;;;;;;19.67;10.88;;;-3.40;1.00;;;-147.47;100.00;69272.31;5179282;27;32959;-75
2022/11/18 06:56:27;;;;;;;21.42;11.88;;;-3.40;1.00;;;-147.47;100.00;69272.31;5179058;27;31721;-76
2022/11/18 06:58:57;;;;;;;18.25;12.18;;;-3.50;1.00;;;-147.47;100.00;69272.31;5146109;27;31482;-76
2022/11/18 07:01:29;;;;;;;19.20;12.13;;;-3.40;1.00;;;-147.47;100.00;69272.31;5163895;27;31905;-77
2022/11/18 07:03:59;;;;;;;19.85;11.57;;;-3.30;1.00;;;-147.47;100.00;69272.31;5179243;27;32186;-77
2022/11/18 07:06:31;;;;;;;20.08;11.20;;;-3.40;1.00;;;-147.47;100.00;69272.31;5163911;27;32126;-77
2022/11/18 07:09:01;;;;;;;21.98;11.30;;;-3.30;1.00;;;-147.47;100.00;69272.31;5178105;27;31611;-77
2022/11/18 07:11:30;;;;;;;19.00;11.05;;;-3.30;1.00;;;-147.47;100.00;69272.31;5163901;27;32103;-77
2022/11/18 07:13:59;;;;;;;19.23;12.05;;;-3.30;1.00;;;-147.47;100.00;69272.31;5160434;27;32795;-76
2022/11/18 07:16:29;;;;;;;18.88;11.88;;;-3.30;1.00;;;-147.47;100.00;69272.31;5179149;27;31906;-76
2022/11/18 07:18:57;;;;;;;19.88;11.52;;;-3.20;1.00;;;-147.47;100.00;69272.31;5163768;27;30445;-76
2022/11/18 07:21:28;;;;;;;19.40;11.45;;;-3.30;1.00;;;-147.47;100.00;69272.31;5163609;27;32778;-77
2022/11/18 07:23:57;;;;;;;21.20;11.85;;;-3.30;1.00;;;-147.47;100.00;69272.31;5179125;27;31624;-75
2022/11/18 07:26:25;;;;;;;20.35;13.32;;;-3.20;1.00;;;-147.47;100.00;69272.31;5163453;27;30733;-77
2022/11/18 07:28:54;;;;;;;23.20;14.05;;;-3.10;1.00;;;-147.47;100.00;69272.31;5178903;27;31538;-75
2022/11/18 07:31:23;;;;;;;21.20;12.75;;;-3.20;1.00;;;-147.47;100.00;69272.31;5178902;27;32975;-76
2022/11/18 07:33:53;;;;;;;22.55;13.52;;;-3.10;1.00;;;-147.47;100.00;69272.31;5146231;27;30825;-77
2022/11/18 07:36:24;;;;;;;20.95;12.70;;;-3.10;1.00;;;-147.47;100.00;69272.31;5178789;27;31903;-76
2022/11/18 07:38:53;;;;;;;21.40;13.82;;;-3.10;1.00;;;-147.47;100.00;69272.31;5179455;27;31760;-76
2022/11/18 07:41:25;;;;;;;19.63;13.75;;;-3.30;1.00;;;-147.47;100.00;69272.31;5178353;27;32143;-77
2022/11/18 07:43:56;;;;;;;20.33;12.13;;;-3.30;1.00;;;-147.47;100.00;69272.31;5178592;27;32060;-76
2022/11/18 07:46:27;;;;;;;19.25;10.93;;;-3.30;1.00;;;-147.47;100.00;69272.31;5163411;27;31030;-76
2022/11/18 07:48:59;;;;;;;21.05;12.25;;;-3.30;1.00;;;-147.47;100.00;69272.31;5178567;27;31622;-75
2022/11/18 07:51:30;;;;;;;23.40;12.38;;;-3.20;1.00;;;-147.47;100.00;69272.31;5163145;27;32087;-76
2022/11/18 07:53:58;;;;;;;18.23;11.45;;;-3.00;1.00;;;-147.47;100.00;69272.31;5178566;27;32136;-76
2022/11/18 07:56:27;;;;;;;18.65;10.82;;;-2.90;1.00;;;-147.47;100.00;69272.31;5178526;27;31916;-75
2022/11/18 07:58:56;;;;;;;19.15;11.65;;;-2.90;1.00;;;-147.47;100.00;69272.31;5178873;27;31969;-76
2022/11/18 08:01:27;;;;;;;18.92;12.32;;;-3.00;1.00;;;-147.47;100.00;69272.31;5178373;27;32546;-76
2022/11/18 08:03:58;;;;;;;22.35;12.23;;;-2.90;1.00;;;-147.47;100.00;69272.31;5178470;27;32791;-76
2022/11/18 08:06:26;;;;;;;21.00;12.20;;;-2.90;1.00;;;-147.47;100.00;69272.31;5178458;27;31791;-77
2022/11/18 08:08:55;;;;;;;19.75;11.48;;;-2.60;1.00;;;-147.47;100.00;69272.31;5178268;27;31626;-78
2022/11/18 08:11:23;;;;;;;19.92;11.40;;;-2.50;1.00;;;-147.47;100.00;69272.31;5178470;27;33240;-76
2022/11/18 08:13:52;;;;;;;19.25;11.45;;;-2.70;1.00;;;-147.47;100.00;69272.31;5178519;27;31998;-77
2022/11/18 08:16:24;;;;;;;20.00;12.13;;;-2.70;1.00;;;-147.47;100.00;69272.31;5178416;27;32602;-77
2022/11/18 08:18:53;;;;;;;19.40;12.00;;;-2.70;1.00;;;-147.47;100.00;69272.31;5163063;27;31362;-78
2022/11/18 08:21:23;;;;;;;24.83;12.57;;;-2.70;1.00;;;-147.47;100.00;69272.31;5159650;27;33375;-77
2022/11/18 08:23:53;;;;;;;18.55;11.82;;;-2.80;1.00;;;-147.47;100.00;69272.31;5178144;27;33131;-77
2022/11/18 08:26:23;;;;;;;20.70;11.77;;;-2.70;1.00;;;-147.47;100.00;69272.31;5178015;27;32360;-78
2022/11/18 08:28:52;;;;;;;17.08;11.13;;;-2.60;1.00;;;-147.47;100.00;69272.31;5178235;27;31378;-77
2022/11/18 08:31:24;;;;;;;22.30;11.88;;;-2.60;1.00;;;-147.47;100.00;69272.31;5178159;27;33249;-77
2022/11/18 08:33:55;;;;;;;19.55;11.82;;;-2.50;1.00;;;-147.47;100.00;69272.31;5177866;27;32616;-78
2022/11/18 08:36:30;;;;;;;21.27;11.32;;;-2.40;1.00;;;-147.47;100.00;69272.31;5159455;27;31311;-75
2022/11/18 08:39:00;;;;;;;16.48;11.05;;;-2.40;1.00;;;-147.47;100.00;69272.31;5178748;27;32445;-76
2022/11/18 08:41:32;;;;;;;19.75;11.15;;;-2.50;1.00;;;-147.47;100.00;69272.31;5177760;27;33531;-77
2022/11/18 08:44:02;;;;;;;19.27;11.13;;;-2.10;1.00;;;-147.47;100.00;69272.31;5177685;27;33024;-77
2022/11/18 08:46:30;;;;;;;18.42;10.20;;;-2.10;1.00;;;-147.47;100.00;69272.31;5162323;27;30383;-78
2022/11/18 08:49:00;;;;;;;18.95;12.00;;;-2.20;1.00;;;-147.47;100.00;69272.31;5181664;27;20063;-76
2022/11/18 08:51:30;;;;;;;16.15;10.55;;;-2.10;1.00;;;-147.47;100.00;69272.31;5176566;27;32659;-78
2022/11/18 08:53:59;;;;;;;18.20;11.00;;;-2.10;1.00;;;-147.47;100.00;69272.31;5162089;27;31589;-78
2022/11/18 08:56:28;;;;;;;17.65;11.30;;;-1.90;1.00;;;-147.47;100.00;69272.31;5158828;27;32133;-78
2022/11/18 08:58:56;;;;;;;19.73;10.75;;;-1.90;1.00;;;-147.47;100.00;69272.31;5177660;27;31563;-78
2022/11/18 09:01:26;;;;;;;20.02;10.65;;;-1.80;1.00;;;-147.47;100.00;69272.31;5177667;27;33140;-77
2022/11/18 09:03:56;;;;;;;17.40;10.15;;;-1.50;1.00;;;-147.47;100.00;69272.31;5177362;27;32029;-78
2022/11/18 09:06:25;;;;;;;15.43;10.18;;;-1.90;1.00;;;-147.47;100.00;69272.31;5177382;27;31596;-75
2022/11/18 09:08:55;;;;;;;16.27;10.80;;;-1.80;1.00;;;-147.47;100.00;69272.31;5175946;27;31994;-77
2022/11/18 09:11:25;;;;;;;18.75;12.63;;;-2.00;1.00;;;-147.47;100.00;69272.31;5175677;27;32083;-77
2022/11/18 09:13:55;;;;;;;19.40;10.30;;;-1.70;1.00;;;-147.47;100.00;69272.31;5159929;27;31028;-78
2022/11/18 09:16:23;;;;;;;18.90;11.50;;;-2.10;1.00;;;-147.47;100.00;69272.31;5145409;27;31697;-76
2022/11/18 09:18:52;;;;;;;16.02;11.73;;;-1.90;1.00;;;-147.47;100.00;69272.31;5176742;27;31616;-77
2022/11/18 09:21:20;;;;;;;20.92;11.15;;;-2.00;1.00;;;-147.47;100.00;69272.31;5176495;27;32756;-78
2022/11/18 09:23:49;;;;;;;17.25;10.63;;;-2.10;1.00;;;-147.47;100.00;69272.31;5161601;27;32234;-78
2022/11/18 09:26:22;;;;;;;19.92;10.75;;;-1.80;1.00;;;-147.47;100.00;69272.31;5162729;27;30384;-77
2022/11/18 09:28:53;;;;;;;16.98;10.75;;;-1.90;1.00;;;-147.47;100.00;69272.31;5176490;27;31642;-77
2022/11/18 09:31:21;;;;;;;16.83;10.38;;;-2.00;1.00;;;-147.47;100.00;69272.31;5176859;27;32526;-77
2022/11/18 09:33:51;;;;;;;17.38;9.48;;;-2.30;1.00;;;-147.47;100.00;69272.31;5176937;27;32721;-77
2022/11/18 09:36:22;;;;;;;16.92;9.73;;;-2.20;1.00;;;-147.47;100.00;69272.31;5176592;27;32111;-76
2022/11/18 09:38:52;;;;;;;17.08;10.50;;;-2.00;1.00;;;-147.47;100.00;69272.31;5161282;27;30947;-77
2022/11/18 09:41:45;;;;;;;15.00;9.82;;;-1.90;1.00;;;-147.47;100.00;69272.31;5176688;27;33167;-77
2022/11/18 09:44:45;;;;;;;15.35;8.70;;;-1.80;1.00;;;-147.47;100.00;69272.31;5161234;27;31445;-76
2022/11/18 09:47:26;;;;;;;15.68;8.93;;;-2.00;1.00;;;-147.47;100.00;69272.31;5176985;27;31745;-76
2022/11/18 09:49:57;;;;;;;13.40;8.63;;;-2.10;1.00;;;-147.47;100.00;69272.31;5169699;27;32407;-78
2022/11/18 09:52:30;;;;;;;14.60;9.35;;;-2.10;1.00;;;-147.47;100.00;69272.31;5155741;27;32386;-77
2022/11/18 09:55:00;;;;;;;16.13;9.52;;;-2.10;1.00;;;-147.47;100.00;69272.31;5159845;27;32132;-77
2022/11/18 09:57:38;;;;;;;13.38;8.32;;;-2.00;1.00;;;-147.47;100.00;69272.31;5155619;27;31898;-77
2022/11/18 10:00:14;;;;;;;14.07;8.20;;;-1.90;1.00;;;-147.47;100.00;69272.31;5155432;27;31973;-77
2022/11/18 10:02:57;;;;;;;14.13;8.50;;;-2.30;1.00;;;-147.47;100.00;69272.31;5140273;27;31702;-77
2022/11/18 10:05:29;;;;;;;12.07;8.32;;;-2.10;1.00;;;-147.47;100.00;69272.31;5144012;27;31582;-77
2022/11/18 10:08:15;;;;;;;13.20;8.10;;;-2.10;1.00;;;-147.47;100.00;69272.31;5143871;27;31306;-77
2022/11/18 10:10:58;;;;;;;13.98;8.82;;;-1.60;1.00;;;-147.47;100.00;69272.31;5178285;27;30157;-78
2022/11/18 10:13:44;;;;;;;12.93;7.97;;;-1.30;1.00;;;-147.47;100.00;69272.31;5143659;27;32542;-78
2022/11/18 10:16:29;;;;;;;15.70;8.35;;;-1.30;1.00;;;-147.47;100.00;69272.31;5143852;27;32391;-78
2022/11/18 10:19:09;;;;;;;15.27;7.85;;;-1.80;1.00;;;-147.47;100.00;69272.31;5177329;27;31753;-78
2022/11/18 10:21:52;;;;;;;12.02;8.20;;;-1.90;1.00;;;-147.47;100.00;69272.31;5179980;27;31225;-77
2022/11/18 10:24:24;;;;;;;14.15;7.95;;;-1.60;1.00;;;-147.47;100.00;69272.31;5158334;27;32891;-78
2022/11/18 10:26:57;;;;;;;12.73;8.27;;;-1.90;1.00;;;-147.47;100.00;69272.31;5159255;27;32256;-77
2022/11/18 10:29:27;;;;;;;14.45;8.18;;;-1.90;1.00;;;-147.47;100.00;69272.31;5158885;27;31562;-77
2022/11/18 10:32:04;;;;;;;16.30;9.38;;;-2.00;1.00;;;-147.47;100.00;69272.31;5158761;27;32200;-76
2022/11/18 10:34:35;;;;;;;13.43;8.10;;;-1.90;1.00;;;-147.47;100.00;69272.31;5158907;27;33326;-77
2022/11/18 10:37:21;;;;;;;15.10;9.15;;;-2.00;1.00;;;-147.47;100.00;69272.31;5158818;27;31798;-78
2022/11/18 10:39:51;;;;;;;12.32;7.93;;;-2.10;1.00;;;-147.47;100.00;69272.31;5142992;27;31607;-76